createdAt,value
2022-08-11T00:01:49.407Z,1.55
2022-08-11T00:04:39.420Z,1.50
2022-08-11T00:07:23.820Z,1.20
2022-08-11T00:10:12.353Z,1.60
2022-08-11T00:12:57.914Z,1.20
2022-08-11T00:15:46.259Z,1.52
2022-08-11T00:18:41.411Z,1.42
2022-08-11T00:21:54.761Z,1.38
2022-08-11T00:24:34.642Z,1.40
2022-08-11T00:27:39.514Z,1.20
2022-08-11T00:30:22.955Z,1.33
2022-08-11T00:33:08.598Z,1.35
2022-08-11T00:35:56.938Z,1.70
2022-08-11T00:38:44.679Z,1.55
2022-08-11T00:41:35.434Z,1.63
2022-08-11T00:44:43.142Z,1.60
2022-08-11T00:47:42.802Z,1.63
2022-08-11T00:50:38.083Z,1.70
2022-08-11T00:53:40.508Z,1.60
2022-08-11T00:56:59.551Z,1.60
2022-08-11T01:00:05.251Z,1.50
2022-08-11T01:03:07.602Z,1.65
2022-08-11T01:06:08.218Z,1.73
2022-08-11T01:09:35.706Z,1.80
2022-08-11T01:12:40.299Z,1.65
2022-08-11T01:16:11.400Z,1.50
2022-08-11T01:19:29.186Z,2.00
2022-08-11T01:22:41.324Z,1.33
2022-08-11T01:25:57.934Z,1.30
2022-08-11T01:29:29.208Z,1.40
2022-08-11T01:32:37.732Z,1.60
2022-08-11T01:35:45.743Z,1.48
2022-08-11T01:38:45.508Z,1.65
2022-08-11T01:42:00.921Z,1.50
2022-08-11T01:45:08.215Z,1.70
2022-08-11T01:48:03.509Z,1.50
2022-08-11T01:51:09.817Z,1.60
2022-08-11T01:54:06.291Z,2.00
2022-08-11T01:57:02.845Z,1.70
2022-08-11T01:59:50.445Z,1.70
2022-08-11T02:02:50.110Z,1.77
2022-08-11T02:06:01.361Z,1.70
2022-08-11T02:08:56.111Z,1.50
2022-08-11T02:11:41.146Z,2.13
2022-08-11T02:14:32.746Z,1.98
2022-08-11T02:17:20.329Z,1.55
2022-08-11T02:20:29.163Z,1.40
2022-08-11T02:24:07.247Z,1.60
2022-08-11T02:26:51.485Z,1.70
2022-08-11T02:29:43.505Z,1.70
2022-08-11T02:32:50.154Z,2.30
2022-08-11T02:35:42.859Z,1.50
2022-08-11T02:38:32.264Z,1.92
2022-08-11T02:41:42.108Z,1.80
2022-08-11T02:44:35.432Z,2.03
2022-08-11T02:47:43.268Z,1.77
2022-08-11T02:50:31.255Z,1.52
2022-08-11T02:53:25.145Z,1.40
2022-08-11T02:56:15.242Z,1.60
2022-08-11T02:59:24.713Z,1.65
2022-08-11T03:02:16.462Z,1.70
2022-08-11T03:05:13.925Z,1.60
2022-08-11T03:08:12.568Z,1.73
2022-08-11T03:11:23.946Z,1.50
2022-08-11T03:14:35.438Z,1.30
2022-08-11T03:17:30.657Z,1.40
2022-08-11T03:20:38.040Z,1.65
2022-08-11T03:23:31.002Z,1.50
2022-08-11T03:26:24.313Z,1.77
2022-08-11T03:29:18.261Z,1.30
2022-08-11T03:32:14.158Z,1.58
2022-08-11T03:35:01.571Z,1.30
2022-08-11T03:37:52.904Z,1.38
2022-08-11T03:41:06.666Z,1.92
2022-08-11T03:44:26.095Z,1.48
2022-08-11T03:47:38.470Z,1.48
2022-08-11T03:50:51.847Z,1.42
2022-08-11T03:54:04.936Z,1.50
2022-08-11T03:57:30.630Z,1.92
2022-08-11T04:00:51.155Z,1.50
2022-08-11T04:04:13.153Z,1.50
2022-08-11T04:07:38.828Z,1.40
2022-08-11T04:10:59.569Z,1.45
2022-08-11T04:14:30.609Z,2.20
2022-08-11T04:17:50.162Z,1.60
2022-08-11T04:20:50.747Z,1.88
2022-08-11T04:24:13.032Z,1.92
2022-08-11T04:27:48.107Z,1.55
2022-08-11T04:30:48.721Z,1.80
2022-08-11T04:34:01.043Z,1.58
2022-08-11T04:37:28.901Z,2.03
2022-08-11T04:40:52.067Z,1.80
2022-08-11T04:44:28.675Z,1.95
2022-08-11T04:48:06.402Z,1.60
2022-08-11T04:51:27.090Z,1.65
2022-08-11T04:54:43.226Z,1.70
2022-08-11T04:57:55.975Z,1.48
2022-08-11T05:01:09.809Z,1.40
2022-08-11T05:04:31.450Z,1.60
2022-08-11T05:07:49.300Z,1.25
2022-08-11T05:10:49.316Z,1.67
2022-08-11T05:13:52.702Z,1.48
2022-08-11T05:17:07.016Z,1.92
2022-08-11T05:20:07.881Z,1.90
2022-08-11T05:23:10.366Z,1.80
2022-08-11T05:26:47.077Z,1.40
2022-08-11T05:29:55.583Z,1.27
2022-08-11T05:33:02.645Z,1.60
2022-08-11T05:36:01.834Z,1.88
2022-08-11T05:39:13.562Z,1.33
2022-08-11T05:42:20.928Z,1.20
2022-08-11T05:45:42.575Z,1.45
2022-08-11T05:48:56.122Z,1.35
2022-08-11T05:52:05.258Z,1.40
2022-08-11T05:55:21.172Z,1.40
2022-08-11T05:58:06.853Z,1.30
2022-08-11T06:00:50.190Z,1.70
2022-08-11T06:03:58.780Z,1.20
2022-08-11T06:06:51.351Z,1.60
2022-08-11T06:09:35.902Z,1.50
2022-08-11T06:12:22.634Z,1.20
2022-08-11T06:15:08.469Z,1.30
2022-08-11T06:17:52.067Z,1.58
2022-08-11T06:20:47.650Z,1.50
2022-08-11T06:23:35.941Z,1.67
2022-08-11T06:26:20.513Z,1.40
2022-08-11T06:29:03.869Z,1.40
2022-08-11T06:31:54.666Z,1.70
2022-08-11T06:34:53.998Z,1.38
2022-08-11T06:37:59.064Z,1.23
2022-08-11T06:41:11.483Z,1.40
2022-08-11T06:44:06.774Z,1.50
2022-08-11T06:46:53.154Z,1.23
2022-08-11T06:49:56.584Z,1.60
2022-08-11T06:52:42.410Z,1.27
2022-08-11T06:55:56.952Z,1.50
2022-08-11T06:59:01.039Z,1.42
2022-08-11T07:01:52.214Z,1.20
2022-08-11T07:04:43.294Z,1.13
2022-08-11T07:08:35.769Z,1.80
2022-08-11T07:11:59.114Z,1.40
2022-08-11T07:15:09.257Z,1.23
2022-08-11T07:18:17.158Z,1.27
2022-08-11T07:22:00.440Z,1.38
2022-08-11T07:24:59.473Z,1.20
2022-08-11T07:28:07.052Z,1.52
2022-08-11T07:30:58.512Z,1.67
2022-08-11T07:34:05.856Z,1.20
2022-08-11T07:36:53.546Z,1.20
2022-08-11T07:39:40.245Z,1.30
2022-08-11T07:42:28.996Z,1.48
2022-08-11T07:45:30.466Z,1.42
2022-08-11T07:48:34.477Z,1.33
2022-08-11T07:51:37.992Z,1.10
2022-08-11T07:54:21.507Z,1.33
2022-08-11T07:58:13.576Z,1.30
2022-08-11T08:00:45.508Z,1.20
2022-08-11T08:03:55.298Z,1.20
2022-08-11T08:06:58.216Z,1.30
2022-08-11T08:09:59.736Z,1.35
2022-08-11T08:13:01.181Z,1.40
2022-08-11T08:16:02.370Z,1.20
2022-08-11T08:18:47.698Z,1.10
2022-08-11T08:21:31.986Z,1.20
2022-08-11T08:24:15.741Z,1.08
2022-08-11T08:26:59.383Z,1.42
2022-08-11T08:30:04.457Z,1.30
2022-08-11T08:32:47.610Z,1.08
2022-08-11T08:35:33.213Z,1.20
2022-08-11T08:38:16.624Z,1.40
2022-08-11T08:41:00.506Z,1.38
2022-08-11T08:43:48.563Z,1.20
2022-08-11T08:46:37.827Z,1.08
2022-08-11T08:49:24.874Z,1.15
2022-08-11T08:52:26.321Z,1.30
2022-08-11T08:55:19.813Z,0.88
2022-08-11T08:58:03.853Z,1.00
2022-08-11T09:00:50.801Z,1.10
2022-08-11T09:04:04.107Z,1.40
2022-08-11T09:06:43.072Z,1.10
2022-08-11T09:09:28.861Z,1.00
2022-08-11T09:12:13.754Z,1.00
2022-08-11T09:15:09.193Z,1.10
2022-08-11T09:17:55.063Z,1.20
2022-08-11T09:20:39.776Z,1.10
2022-08-11T09:27:00.285Z,0.88
2022-08-11T09:29:43.960Z,1.20
2022-08-11T09:32:29.319Z,1.30
2022-08-11T09:35:13.103Z,1.00
2022-08-11T09:38:15.403Z,0.90
2022-08-11T09:41:00.101Z,1.00
2022-08-11T09:46:47.998Z,0.90
2022-08-11T09:49:34.746Z,0.88
2022-08-11T09:52:19.194Z,0.90
2022-08-11T09:55:11.215Z,0.80
2022-08-11T09:58:42.678Z,0.73
2022-08-11T10:01:28.153Z,0.70
2022-08-11T10:04:16.484Z,0.90
2022-08-11T10:07:04.124Z,0.80
2022-08-11T10:09:52.603Z,0.77
2022-08-11T10:12:39.267Z,0.80
2022-08-11T10:15:34.139Z,0.77
2022-08-11T10:18:49.246Z,0.90
2022-08-11T10:21:39.273Z,1.00
2022-08-11T10:24:40.252Z,0.77
2022-08-11T10:27:29.013Z,0.77
2022-08-11T10:30:46.124Z,0.77
2022-08-11T10:33:57.605Z,0.60
2022-08-11T10:36:47.063Z,0.50
2022-08-11T10:39:31.324Z,0.80
2022-08-11T10:42:55.336Z,0.70
2022-08-11T10:45:56.117Z,0.50
2022-08-11T10:48:41.394Z,0.85
2022-08-11T10:51:50.445Z,0.80
2022-08-11T10:54:54.480Z,0.73
2022-08-11T10:58:04.154Z,0.70
2022-08-11T11:00:50.530Z,0.77
2022-08-11T11:03:35.487Z,0.90
2022-08-11T11:06:28.299Z,0.80
2022-08-11T11:09:17.129Z,0.65
2022-08-11T11:12:22.207Z,0.90
2022-08-11T11:18:11.578Z,0.80
2022-08-11T11:20:58.530Z,0.80
2022-08-11T11:23:51.083Z,0.70
2022-08-11T11:26:45.820Z,0.80
2022-08-11T11:29:53.127Z,0.70
2022-08-11T11:32:49.574Z,0.80
2022-08-11T11:35:45.416Z,0.80
2022-08-11T11:38:30.142Z,0.88
2022-08-11T11:41:26.777Z,0.73
2022-08-11T11:44:14.014Z,0.75
2022-08-11T11:46:58.057Z,0.80
2022-08-11T11:49:44.431Z,0.80
2022-08-11T11:52:28.750Z,0.70
2022-08-11T11:55:12.458Z,0.70
2022-08-11T11:58:18.508Z,0.80
2022-08-11T12:01:24.965Z,0.88
2022-08-11T12:04:09.364Z,0.90
2022-08-11T12:07:15.403Z,0.95
2022-08-11T12:09:59.470Z,0.77
2022-08-11T12:13:00.371Z,0.90
2022-08-11T12:16:31.229Z,1.20
2022-08-11T12:21:37.643Z,0.80
2022-08-11T12:27:24.892Z,0.80
2022-08-11T12:30:09.590Z,1.00
2022-08-11T12:32:54.491Z,1.05
2022-08-11T12:35:38.768Z,0.80
2022-08-11T12:38:41.985Z,0.70
2022-08-11T12:41:43.526Z,0.68
2022-08-11T12:44:46.686Z,0.80
2022-08-11T12:48:47.832Z,1.00
2022-08-11T12:51:21.075Z,0.80
2022-08-11T12:54:11.686Z,0.80
2022-08-11T12:57:36.227Z,0.77
2022-08-11T13:03:40.654Z,0.70
2022-08-11T13:06:26.218Z,0.80
2022-08-11T13:09:12.383Z,0.70
2022-08-11T13:12:13.489Z,0.82
2022-08-11T13:14:57.268Z,0.80
2022-08-11T13:17:44.250Z,0.80
2022-08-11T13:20:28.157Z,0.70
2022-08-11T13:23:13.357Z,1.10
2022-08-11T13:25:57.396Z,0.80
2022-08-11T13:28:41.922Z,0.88
2022-08-11T13:34:09.341Z,0.90
2022-08-11T13:36:55.687Z,0.88
2022-08-11T13:39:47.414Z,0.70
2022-08-11T13:42:31.391Z,0.70
2022-08-11T13:45:15.248Z,0.80
2022-08-11T13:48:00.382Z,1.10
2022-08-11T13:51:02.859Z,0.80
2022-08-11T13:53:46.300Z,0.70
2022-08-11T13:56:32.110Z,0.82
2022-08-11T13:59:16.770Z,0.70
2022-08-11T14:02:21.606Z,0.90
2022-08-11T14:05:11.575Z,0.90
2022-08-11T14:08:00.057Z,0.77
2022-08-11T14:10:43.777Z,0.85
2022-08-11T14:13:41.316Z,0.90
2022-08-11T14:16:31.755Z,0.85
2022-08-11T14:19:18.606Z,0.70
2022-08-11T14:22:10.155Z,0.80
2022-08-11T14:24:54.858Z,0.90
2022-08-11T14:28:30.610Z,1.10
2022-08-11T14:31:01.544Z,0.70
2022-08-11T14:34:00.973Z,0.90
2022-08-11T14:36:48.142Z,1.05
2022-08-11T14:39:36.103Z,0.95
2022-08-11T14:42:39.211Z,1.00
2022-08-11T14:45:57.885Z,0.90
2022-08-11T14:48:42.415Z,1.00
2022-08-11T14:51:27.503Z,0.80
2022-08-11T14:54:29.033Z,0.90
2022-08-11T14:57:12.931Z,0.90
2022-08-11T14:59:57.490Z,0.60
2022-08-11T15:05:42.206Z,0.70
2022-08-11T15:08:55.864Z,1.13
2022-08-11T15:11:57.710Z,0.90
2022-08-11T15:14:58.435Z,0.90
2022-08-11T15:17:44.039Z,0.77
2022-08-11T15:20:46.624Z,0.60
2022-08-11T15:23:49.236Z,0.80
2022-08-11T15:26:56.452Z,0.80
2022-08-11T15:30:00.110Z,0.75
2022-08-11T15:33:03.086Z,0.90
2022-08-11T15:36:04.227Z,0.70
2022-08-11T15:38:55.833Z,0.82
2022-08-11T15:42:03.088Z,0.70
2022-08-11T15:45:09.836Z,0.63
2022-08-11T15:47:58.415Z,0.90
2022-08-11T15:50:53.324Z,0.70
2022-08-11T15:53:42.473Z,0.80
2022-08-11T15:56:30.292Z,0.60
2022-08-11T15:59:41.683Z,0.90
2022-08-11T16:02:46.468Z,0.70
2022-08-11T16:05:46.101Z,0.82
2022-08-11T16:08:35.654Z,0.80
2022-08-11T16:11:20.094Z,0.90
2022-08-11T16:14:25.097Z,1.00
2022-08-11T16:17:11.146Z,0.95
2022-08-11T16:19:57.707Z,0.90
2022-08-11T16:22:57.201Z,0.80
2022-08-11T16:27:04.431Z,1.00
2022-08-11T16:28:51.172Z,0.90
2022-08-11T16:31:38.516Z,0.90
2022-08-11T16:34:35.518Z,0.90
2022-08-11T16:37:37.625Z,1.00
2022-08-11T16:40:22.680Z,0.90
2022-08-11T16:43:26.172Z,1.08
2022-08-11T16:46:28.045Z,1.00
2022-08-11T16:49:18.026Z,0.90
2022-08-11T16:52:04.083Z,0.88
2022-08-11T16:54:47.724Z,0.88
2022-08-11T16:57:49.716Z,0.90
2022-08-11T17:00:34.531Z,0.90
2022-08-11T17:03:37.077Z,0.90
2022-08-11T17:06:40.294Z,1.00
2022-08-11T17:09:44.004Z,0.80
2022-08-11T17:12:47.790Z,1.02
2022-08-11T17:15:50.864Z,0.80
2022-08-11T17:18:41.294Z,0.82
2022-08-11T17:21:29.895Z,1.00
2022-08-11T17:24:14.407Z,0.80
2022-08-11T17:26:58.771Z,0.80
2022-08-11T17:29:54.084Z,0.80
2022-08-11T17:33:01.063Z,0.82
2022-08-11T17:35:44.787Z,0.85
2022-08-11T17:38:30.967Z,0.80
2022-08-11T17:41:33.562Z,0.90
2022-08-11T17:44:34.259Z,0.80
2022-08-11T17:47:36.471Z,0.80
2022-08-11T17:50:21.013Z,0.70
2022-08-11T17:53:33.342Z,0.90
2022-08-11T17:56:37.465Z,0.80
2022-08-11T17:59:39.067Z,1.00
2022-08-11T18:02:42.371Z,0.80
2022-08-11T18:05:29.095Z,0.80
2022-08-11T18:08:31.693Z,0.80
2022-08-11T18:12:06.921Z,0.80
2022-08-11T18:14:56.713Z,0.70
2022-08-11T18:17:59.184Z,0.88
2022-08-11T18:20:59.642Z,0.95
2022-08-11T18:24:00.238Z,0.95
2022-08-11T18:27:04.297Z,0.93
2022-08-11T18:30:08.588Z,0.90
2022-08-11T18:36:39.618Z,0.80
2022-08-11T18:39:43.665Z,0.98
2022-08-11T18:43:00.190Z,0.90
2022-08-11T18:46:06.187Z,0.82
2022-08-11T18:49:15.646Z,1.00
2022-08-11T18:52:17.918Z,1.00
2022-08-11T18:55:22.129Z,0.90
2022-08-11T18:58:28.899Z,0.80
2022-08-11T19:01:31.817Z,1.00
2022-08-11T19:04:37.811Z,0.90
2022-08-11T19:07:39.512Z,0.80
2022-08-11T19:10:40.575Z,0.80
2022-08-11T19:13:45.122Z,0.88
2022-08-11T19:16:47.816Z,0.85
2022-08-11T19:19:50.796Z,0.85
2022-08-11T19:22:52.787Z,1.05
2022-08-11T19:25:54.255Z,0.98
2022-08-11T19:28:58.124Z,0.90
2022-08-11T19:31:59.660Z,0.90
2022-08-11T19:35:00.534Z,1.00
2022-08-11T19:38:02.137Z,0.90
2022-08-11T19:41:03.435Z,0.85
2022-08-11T19:44:06.663Z,0.75
2022-08-11T19:47:08.251Z,0.90
2022-08-11T19:50:10.636Z,0.90
2022-08-11T19:53:17.686Z,0.85
2022-08-11T19:56:19.481Z,0.82
2022-08-11T19:59:22.070Z,0.95
2022-08-11T20:02:23.411Z,0.80
2022-08-11T20:05:26.147Z,0.82
2022-08-11T20:08:27.595Z,0.80
2022-08-11T20:11:30.247Z,0.90
2022-08-11T20:14:32.893Z,0.95
2022-08-11T20:17:35.415Z,0.80
2022-08-11T20:20:37.301Z,0.90
2022-08-11T20:23:39.271Z,1.00
2022-08-11T20:26:41.219Z,1.00
2022-08-11T20:29:48.420Z,1.08
2022-08-11T20:32:49.174Z,0.80
2022-08-11T20:35:51.699Z,0.82
2022-08-11T20:38:55.310Z,0.88
2022-08-11T20:41:59.072Z,0.93
2022-08-11T20:45:03.643Z,1.00
2022-08-11T20:48:05.330Z,0.98
2022-08-11T20:51:08.878Z,0.90
2022-08-11T20:54:09.443Z,0.90
2022-08-11T20:57:12.754Z,1.10
2022-08-11T21:00:17.990Z,0.80
2022-08-11T21:03:44.824Z,0.90
2022-08-11T21:06:55.347Z,0.90
2022-08-11T21:10:09.454Z,0.68
2022-08-11T21:13:25.728Z,0.80
2022-08-11T21:16:35.142Z,0.90
2022-08-11T21:20:01.201Z,1.10
2022-08-11T21:23:06.319Z,1.00
2022-08-11T21:26:12.665Z,1.00
2022-08-11T21:29:16.537Z,0.75
2022-08-11T21:32:19.851Z,0.95
2022-08-11T21:35:21.160Z,1.00
2022-08-11T21:38:23.367Z,0.90
2022-08-11T21:41:25.408Z,0.85
2022-08-11T21:44:27.292Z,0.90
2022-08-11T21:47:43.537Z,0.90
2022-08-11T21:50:44.862Z,1.05
2022-08-11T21:53:46.216Z,0.80
2022-08-11T21:56:48.823Z,0.90
2022-08-11T21:59:56.893Z,1.00
2022-08-11T22:02:59.822Z,1.10
2022-08-11T22:06:02.496Z,0.95
2022-08-11T22:09:03.440Z,1.00
2022-08-11T22:12:34.539Z,0.98
2022-08-11T22:15:26.245Z,1.00
2022-08-11T22:18:27.951Z,1.02
2022-08-11T22:22:01.687Z,0.93
2022-08-11T22:24:51.792Z,0.80
2022-08-11T22:27:52.426Z,1.00
2022-08-11T22:30:53.103Z,0.93
2022-08-11T22:34:03.001Z,0.93
2022-08-11T22:37:06.719Z,0.77
2022-08-11T22:40:08.642Z,1.02
2022-08-11T22:43:09.143Z,0.80
2022-08-11T22:46:10.345Z,0.90
2022-08-11T22:49:13.890Z,0.90
2022-08-11T22:52:17.017Z,0.73
2022-08-11T22:55:18.598Z,0.88
2022-08-11T22:58:20.970Z,1.00
2022-08-11T23:01:21.621Z,0.88
2022-08-11T23:04:25.262Z,1.10
2022-08-11T23:07:49.804Z,0.90
2022-08-11T23:10:48.491Z,0.80
2022-08-11T23:13:50.603Z,0.80
2022-08-11T23:16:51.415Z,0.95
2022-08-11T23:20:11.660Z,0.75
2022-08-11T23:23:15.204Z,1.10
2022-08-11T23:26:16.457Z,1.10
2022-08-11T23:29:18.192Z,1.00
2022-08-11T23:32:20.740Z,0.93
2022-08-11T23:35:38.701Z,0.98
2022-08-11T23:38:41.376Z,0.77
2022-08-11T23:41:41.825Z,1.00
2022-08-11T23:44:42.327Z,1.00
2022-08-11T23:47:50.919Z,0.90
2022-08-11T23:50:53.944Z,0.90
2022-08-11T23:53:57.197Z,1.13
2022-08-11T23:56:57.992Z,0.98
2022-08-11T23:59:58.485Z,1.00
